Time;durP1;ratioP1;P1;durP2;ratioP2;P2;SDS_P1;SDS_P2;PMS_P1;PMS_P2;Temp;Humidity;BMP_temperature;BMP_pressure;BME280_temperature;BME280_humidity;BME280_pressure;Samples;Min_cycle;Max_cycle;Signal;HPM_P1;HPM_P2
2022/11/18 00:04:01;;;;;;;2.25;1.40;;;11.10;99.90;;;;;;10444322;28;20029;-60
2022/11/18 00:09:02;;;;;;;3.22;1.42;;;11.10;99.90;;;;;;10439022;28;20033;-61
2022/11/18 00:14:21;;;;;;;2.55;1.27;;;11.10;99.90;;;;;;10431276;28;20025;-60
2022/11/18 00:19:47;;;;;;;2.15;1.42;;;11.10;99.90;;;;;;10437059;28;20061;-61
2022/11/18 00:24:48;;;;;;;2.97;1.30;;;11.10;99.90;;;;;;10426669;28;20033;-61
2022/11/18 00:29:49;;;;;;;2.80;1.48;;;11.10;99.90;;;;;;10443118;28;20439;-61
2022/11/18 00:34:49;;;;;;;4.38;1.67;;;11.10;99.90;;;;;;10455227;28;20472;-60
2022/11/18 00:39:50;;;;;;;2.50;1.50;;;11.00;99.90;;;;;;10442217;28;20043;-61
2022/11/18 00:44:51;;;;;;;5.15;1.60;;;11.00;99.90;;;;;;10418079;28;20032;-60
2022/11/18 00:49:51;;;;;;;2.40;1.42;;;11.00;99.90;;;;;;10433827;28;20159;-60
2022/11/18 00:54:52;;;;;;;3.88;1.95;;;11.00;99.90;;;;;;10436862;28;20081;-61
2022/11/18 00:59:53;;;;;;;3.28;1.60;;;11.00;99.90;;;;;;10447376;28;20070;-61
2022/11/18 01:04:53;;;;;;;4.00;1.67;;;11.00;99.90;;;;;;10433642;28;20029;-62
2022/11/18 01:09:56;;;;;;;2.42;1.65;;;11.00;99.90;;;;;;10451542;28;20385;-62
2022/11/18 01:14:58;;;;;;;3.25;1.73;;;11.00;99.90;;;;;;10456362;28;20059;-61
2022/11/18 01:19:59;;;;;;;3.95;1.85;;;11.00;99.90;;;;;;10448055;28;20041;-61
2022/11/18 01:25:00;;;;;;;2.97;1.67;;;11.00;99.90;;;;;;10450629;28;20453;-61
2022/11/18 01:30:01;;;;;;;4.55;1.92;;;11.00;99.90;;;;;;10449417;28;20148;-61
2022/11/18 01:35:01;;;;;;;3.05;1.90;;;11.00;99.90;;;;;;10436439;28;20025;-61
2022/11/18 01:40:04;;;;;;;4.70;2.33;;;11.00;99.90;;;;;;10455770;28;20033;-60
2022/11/18 01:45:13;;;;;;;4.05;2.08;;;11.00;99.90;;;;;;10449429;28;20025;-61
2022/11/18 01:50:18;;;;;;;3.55;1.90;;;11.00;99.90;;;;;;10451803;28;20162;-61
2022/11/18 01:55:24;;;;;;;3.78;2.08;;;11.00;99.90;;;;;;10436506;28;20014;-60
2022/11/18 02:00:25;;;;;;;3.90;2.10;;;11.00;99.90;;;;;;10420782;28;20057;-61
2022/11/18 02:05:27;;;;;;;4.05;2.15;;;11.00;99.90;;;;;;10459227;28;20116;-60
2022/11/18 02:10:28;;;;;;;4.82;1.90;;;10.90;99.90;;;;;;10454088;28;20021;-61
2022/11/18 02:15:47;;;;;;;3.95;2.05;;;10.90;99.90;;;;;;10437357;28;20017;-61
2022/11/18 02:20:53;;;;;;;4.88;2.50;;;10.90;99.90;;;;;;10437973;28;20480;-60
2022/11/18 02:26:11;;;;;;;2.90;2.20;;;10.90;99.90;;;;;;10441777;28;20496;-61
2022/11/18 02:31:23;;;;;;;4.45;2.30;;;10.90;99.90;;;;;;10447638;28;20829;-61
2022/11/18 02:36:52;;;;;;;6.47;2.60;;;10.90;99.90;;;;;;10447247;28;20116;-62
2022/11/18 02:41:56;;;;;;;5.88;2.65;;;10.90;99.90;;;;;;10448193;28;20390;-60
2022/11/18 02:47:02;;;;;;;5.55;3.20;;;10.90;99.90;;;;;;10447341;28;20055;-61
2022/11/18 02:52:06;;;;;;;5.18;2.92;;;10.90;99.90;;;;;;10439440;28;20025;-60
2022/11/18 02:57:07;;;;;;;5.10;3.17;;;10.90;99.90;;;;;;10431734;28;20499;-60
2022/11/18 03:02:15;;;;;;;3.90;2.92;;;10.90;99.90;;;;;;10446820;28;20045;-61
2022/11/18 03:07:29;;;;;;;6.03;3.25;;;10.90;99.90;;;;;;10456898;28;20478;-60
2022/11/18 03:12:52;;;;;;;7.40;3.38;;;10.90;99.90;;;;;;10453149;28;20033;-61
2022/11/18 03:18:23;;;;;;;6.18;3.58;;;10.90;99.90;;;;;;10420995;28;20119;-60
2022/11/18 03:23:27;;;;;;;5.78;3.60;;;10.90;99.90;;;;;;10446118;28;20120;-60
2022/11/18 03:28:39;;;;;;;7.97;3.65;;;10.90;99.90;;;;;;10446200;28;20014;-61
2022/11/18 03:33:48;;;;;;;6.97;3.50;;;10.90;99.90;;;;;;10453255;28;20036;-60
2022/11/18 03:38:53;;;;;;;6.20;3.65;;;10.90;99.90;;;;;;10442757;28;20037;-61
2022/11/18 03:43:59;;;;;;;8.15;4.43;;;10.90;99.90;;;;;;10445178;28;20021;-61
2022/11/18 03:49:00;;;;;;;8.80;4.55;;;10.90;99.90;;;;;;10427629;28;20028;-61
2022/11/18 03:54:27;;;;;;;9.65;5.25;;;10.90;99.90;;;;;;10444439;28;20504;-60
2022/11/18 03:59:36;;;;;;;9.18;4.75;;;10.90;99.90;;;;;;10418067;28;20502;-60
2022/11/18 04:04:38;;;;;;;;;;;10.90;99.90;;;;;;10446479;28;20055;-61
2022/11/18 04:09:46;;;;;;;8.85;4.60;;;10.90;99.90;;;;;;10443839;28;20323;-61
2022/11/18 04:14:51;;;;;;;9.18;5.32;;;10.90;99.90;;;;;;10431548;28;20029;-60
2022/11/18 04:19:51;;;;;;;8.30;5.10;;;10.90;99.90;;;;;;10432222;28;20041;-60
2022/11/18 04:24:52;;;;;;;6.93;4.78;;;10.90;99.90;;;;;;10436935;28;20025;-60
2022/11/18 04:29:53;;;;;;;9.82;5.03;;;10.90;99.90;;;;;;10443151;28;20027;-61
2022/11/18 04:34:53;;;;;;;11.10;5.00;;;10.90;99.90;;;;;;10443481;28;20025;-60
2022/11/18 04:39:54;;;;;;;8.52;4.95;;;10.90;99.90;;;;;;10425245;28;20407;-61
2022/11/18 04:44:55;;;;;;;9.80;5.22;;;10.90;99.90;;;;;;10452686;28;20516;-60
2022/11/18 04:49:55;;;;;;;10.85;5.30;;;10.90;99.90;;;;;;10435277;28;20058;-61
2022/11/18 04:54:56;;;;;;;11.55;5.40;;;11.00;99.90;;;;;;10443216;28;20532;-60
2022/11/18 04:59:57;;;;;;;11.23;6.22;;;10.90;99.90;;;;;;10441946;28;20041;-60
2022/11/18 05:04:58;;;;;;;11.55;5.65;;;11.00;99.90;;;;;;10447431;28;20493;-61
2022/11/18 05:09:58;;;;;;;10.68;5.80;;;10.90;99.90;;;;;;10436491;28;20052;-61
2022/11/18 05:15:00;;;;;;;10.82;6.22;;;10.90;99.90;;;;;;10448674;28;20029;-61
2022/11/18 05:20:01;;;;;;;12.35;6.20;;;10.90;99.90;;;;;;10444998;28;20069;-61
2022/11/18 05:25:02;;;;;;;9.30;5.90;;;10.90;99.90;;;;;;10441364;28;20465;-61
2022/11/18 05:30:04;;;;;;;11.82;5.80;;;10.90;99.90;;;;;;10441385;28;20037;-62
2022/11/18 05:35:05;;;;;;;12.07;6.50;;;10.90;99.90;;;;;;10444488;28;20062;-60
2022/11/18 05:40:07;;;;;;;12.40;5.63;;;10.90;99.90;;;;;;10445643;28;20037;-61
2022/11/18 05:45:08;;;;;;;12.07;6.10;;;10.90;99.90;;;;;;10442029;28;20087;-60
2022/11/18 05:50:08;;;;;;;12.93;6.47;;;10.90;99.90;;;;;;10444165;28;20183;-60
2022/11/18 05:55:12;;;;;;;13.80;6.97;;;10.90;99.90;;;;;;10442853;28;20560;-64
2022/11/18 06:00:14;;;;;;;14.20;6.68;;;10.90;99.90;;;;;;10437877;28;20061;-61
2022/11/18 06:05:17;;;;;;;10.90;6.57;;;10.90;99.90;;;;;;10452877;28;20568;-62
2022/11/18 06:10:23;;;;;;;14.27;7.43;;;10.90;99.90;;;;;;10441850;28;20028;-61
2022/11/18 06:15:27;;;;;;;11.15;6.53;;;10.90;99.90;;;;;;10453758;28;20289;-64
2022/11/18 06:20:28;;;;;;;12.60;6.63;;;10.90;99.90;;;;;;10441835;28;20041;-62
2022/11/18 06:25:29;;;;;;;13.60;6.65;;;10.90;99.90;;;;;;10443571;28;20017;-64
2022/11/18 06:30:30;;;;;;;13.27;7.07;;;10.90;99.90;;;;;;10438382;28;20025;-61
2022/11/18 06:35:30;;;;;;;12.43;6.72;;;10.90;99.90;;;;;;10433494;28;20013;-61
2022/11/18 06:40:31;;;;;;;12.40;6.88;;;10.90;99.90;;;;;;10446793;28;20044;-62
2022/11/18 06:45:32;;;;;;;10.68;6.00;;;10.90;99.90;;;;;;10433265;28;20449;-61
2022/11/18 06:50:33;;;;;;;14.07;6.93;;;10.90;99.90;;;;;;10435411;28;20098;-60
2022/11/18 06:55:34;;;;;;;13.27;7.00;;;10.90;99.90;;;;;;10419444;28;20096;-61
2022/11/18 07:00:35;;;;;;;12.52;6.70;;;11.00;99.90;;;;;;10429998;28;20545;-60
2022/11/18 07:05:35;;;;;;;13.52;7.38;;;10.90;99.90;;;;;;10442820;28;20032;-60
2022/11/18 07:10:36;;;;;;;12.20;6.88;;;10.90;99.90;;;;;;10439132;28;20409;-61
2022/11/18 07:15:37;;;;;;;14.07;6.63;;;10.90;99.90;;;;;;10428449;28;20026;-61
2022/11/18 07:20:37;;;;;;;14.52;6.60;;;11.00;99.90;;;;;;10436653;28;20096;-60
2022/11/18 07:25:38;;;;;;;12.75;6.68;;;10.90;99.90;;;;;;10443523;28;20036;-64
2022/11/18 07:30:39;;;;;;;12.02;6.93;;;11.00;99.90;;;;;;10434629;28;20036;-59
2022/11/18 07:35:39;;;;;;;12.60;6.57;;;10.90;99.90;;;;;;10445175;28;20020;-60
2022/11/18 07:40:40;;;;;;;12.68;6.60;;;10.90;99.90;;;;;;10444044;28;20045;-60
2022/11/18 07:45:41;;;;;;;12.82;6.80;;;10.90;99.90;;;;;;10424783;28;20028;-63
2022/11/18 07:50:42;;;;;;;11.98;6.53;;;10.90;99.90;;;;;;10428544;28;20025;-61
2022/11/18 07:55:42;;;;;;;12.18;6.75;;;10.90;99.90;;;;;;10409702;28;20026;-63
2022/11/18 08:00:43;;;;;;;12.43;6.90;;;10.90;99.90;;;;;;10407909;28;20052;-59
2022/11/18 08:05:44;;;;;;;13.85;6.68;;;10.90;99.90;;;;;;10412805;28;20041;-64
2022/11/18 08:10:44;;;;;;;12.75;6.80;;;10.90;99.90;;;;;;10410964;28;20029;-60
2022/11/18 08:15:45;;;;;;;13.23;6.93;;;10.90;99.90;;;;;;10410449;28;20021;-59
2022/11/18 08:20:46;;;;;;;11.45;6.45;;;10.90;99.90;;;;;;10404338;28;20061;-59
2022/11/18 08:25:47;;;;;;;12.10;6.22;;;10.90;99.90;;;;;;10425647;28;20021;-60
2022/11/18 08:30:48;;;;;;;10.40;5.88;;;10.50;99.90;;;;;;10355478;28;20037;-61
2022/11/18 08:35:48;;;;;;;12.02;6.50;;;10.90;99.90;;;;;;10353663;28;20025;-60
2022/11/18 08:40:49;;;;;;;9.38;5.50;;;10.90;99.90;;;;;;10354800;28;20041;-63
2022/11/18 08:45:50;;;;;;;11.30;5.80;;;10.90;99.90;;;;;;10324448;28;20278;-62
2022/11/18 08:50:51;;;;;;;9.13;5.43;;;10.90;99.90;;;;;;10345475;28;20830;-60
2022/11/18 08:56:01;;;;;;;9.77;5.15;;;10.90;99.90;;;;;;10350897;28;20029;-60
2022/11/18 09:01:05;;;;;;;10.07;5.57;;;10.90;99.90;;;;;;10364878;28;20040;-60
2022/11/18 09:06:15;;;;;;;14.05;6.30;;;10.90;99.90;;;;;;10366895;28;20099;-60
2022/11/18 09:11:18;;;;;;;10.27;5.97;;;10.90;99.90;;;;;;10364537;28;20279;-61
2022/11/18 09:16:19;;;;;;;8.43;5.43;;;10.90;99.90;;;;;;10354076;28;20107;-60
2022/11/18 09:21:20;;;;;;;10.00;5.70;;;10.90;99.90;;;;;;10362984;28;20704;-60
2022/11/18 09:26:25;;;;;;;10.68;5.93;;;10.90;99.90;;;;;;10356248;28;20139;-60
2022/11/18 09:31:26;;;;;;;9.07;5.55;;;10.50;99.90;;;;;;10343680;28;20061;-61
2022/11/18 09:36:27;;;;;;;11.30;5.90;;;10.90;99.90;;;;;;10331333;28;20080;-60
2022/11/18 09:42:07;;;;;;;9.82;5.75;;;10.90;99.90;;;;;;10376580;28;20032;-60
2022/11/18 09:47:34;;;;;;;8.43;4.82;;;11.00;99.90;;;;;;10349658;28;20033;-60
2022/11/18 09:52:37;;;;;;;13.85;5.53;;;10.90;99.90;;;;;;10345286;28;20038;-61
2022/11/18 09:57:43;;;;;;;8.35;4.97;;;11.00;99.90;;;;;;10353920;28;20390;-60
2022/11/18 10:03:03;;;;;;;8.68;5.53;;;11.00;99.90;;;;;;10332104;28;20080;-60
2022/11/18 10:08:26;;;;;;;8.43;5.15;;;11.20;99.90;;;;;;10355956;28;20357;-60
2022/11/18 10:13:46;;;;;;;8.20;4.43;;;11.00;99.90;;;;;;10359354;28;20037;-60
2022/11/18 10:19:19;;;;;;;9.82;4.70;;;11.00;99.90;;;;;;10354014;28;20137;-61
2022/11/18 10:24:26;;;;;;;7.88;4.40;;;11.10;99.90;;;;;;10350912;28;20036;-60
2022/11/18 10:29:27;;;;;;;7.75;4.22;;;11.30;99.90;;;;;;10340212;28;20415;-60
2022/11/18 10:34:27;;;;;;;8.05;4.35;;;11.00;99.90;;;;;;10359967;28;20679;-61
2022/11/18 10:39:28;;;;;;;7.72;4.68;;;11.00;99.90;;;;;;10378225;28;20065;-60
2022/11/18 10:44:40;;;;;;;10.20;5.10;;;11.00;99.90;;;;;;10343552;28;20208;-60
2022/11/18 10:49:41;;;;;;;7.88;4.22;;;10.90;99.90;;;;;;10352933;28;20033;-60
2022/11/18 10:54:42;;;;;;;8.40;4.45;;;11.30;99.90;;;;;;10346727;28;20037;-61
2022/11/18 10:59:52;;;;;;;10.15;4.75;;;11.00;99.90;;;;;;10357470;28;20484;-60
2022/11/18 11:04:53;;;;;;;7.80;4.65;;;11.00;99.90;;;;;;10345231;28;20030;-63
2022/11/18 11:10:06;;;;;;;7.88;5.30;;;11.00;99.90;;;;;;10356542;28;20227;-63
2022/11/18 11:15:32;;;;;;;8.88;4.82;;;11.00;99.90;;;;;;10360787;28;20071;-60
2022/11/18 11:20:34;;;;;;;7.93;4.50;;;11.00;99.90;;;;;;10333396;28;20060;-60
2022/11/18 11:25:54;;;;;;;9.20;4.50;;;11.00;99.90;;;;;;10355181;28;20037;-61
2022/11/18 11:31:28;;;;;;;7.47;4.55;;;11.00;99.90;;;;;;10336829;28;20498;-61
2022/11/18 11:36:45;;;;;;;6.88;4.07;;;11.00;99.90;;;;;;10314264;28;20036;-61
2022/11/18 11:42:05;;;;;;;8.23;4.70;;;11.00;99.90;;;;;;10359090;28;20063;-61
2022/11/18 11:47:56;;;;;;;7.38;4.30;;;11.00;99.90;;;;;;10346299;28;20017;-60
2022/11/18 11:53:24;;;;;;;8.60;5.07;;;11.00;99.90;;;;;;10350599;28;20156;-61
2022/11/18 11:58:49;;;;;;;8.98;4.30;;;11.00;99.90;;;;;;10351037;28;20033;-61
2022/11/18 12:03:59;;;;;;;8.63;4.30;;;11.00;99.90;;;;;;10361933;28;20486;-60
2022/11/18 12:09:20;;;;;;;8.82;4.90;;;11.00;99.90;;;;;;10370900;28;20021;-60
2022/11/18 12:14:44;;;;;;;7.72;4.32;;;10.80;99.90;;;;;;10362297;28;20025;-60
2022/11/18 12:19:45;;;;;;;7.53;4.40;;;11.00;99.90;;;;;;10343183;28;20056;-61
2022/11/18 12:24:46;;;;;;;6.88;4.13;;;11.20;99.90;;;;;;10347775;28;20024;-62
2022/11/18 12:29:49;;;;;;;7.60;4.60;;;11.00;99.90;;;;;;10353833;28;20147;-60
2022/11/18 12:35:03;;;;;;;10.05;5.45;;;11.00;99.90;;;;;;10344974;28;20460;-60
2022/11/18 12:40:04;;;;;;;7.43;4.40;;;11.00;99.90;;;;;;10378579;28;20457;-61
2022/11/18 12:45:46;;;;;;;8.43;4.47;;;11.40;99.90;;;;;;10353739;28;20028;-60
2022/11/18 12:50:51;;;;;;;9.20;4.75;;;11.00;99.90;;;;;;10336677;28;20033;-60
2022/11/18 12:55:52;;;;;;;8.73;5.03;;;11.00;99.90;;;;;;10342784;28;20264;-60
2022/11/18 13:01:20;;;;;;;10.15;5.47;;;11.00;99.90;;;;;;10353014;28;20599;-60
2022/11/18 13:06:31;;;;;;;7.47;4.65;;;10.80;99.90;;;;;;10355463;28;20208;-60
2022/11/18 13:11:49;;;;;;;8.32;4.75;;;10.80;99.90;;;;;;10378302;28;20033;-61
2022/11/18 13:27:45;;;;;;;6.97;4.28;;;10.80;99.90;;;;;;10361674;28;20539;-60
2022/11/18 13:32:47;;;;;;;8.73;4.47;;;10.80;99.90;;;;;;10355793;28;20505;-61
2022/11/18 13:37:57;;;;;;;6.68;4.25;;;10.80;99.90;;;;;;10371688;28;20534;-61
2022/11/18 13:42:57;;;;;;;8.00;4.00;;;10.80;99.90;;;;;;10371714;28;20044;-60
2022/11/18 13:48:05;;;;;;;7.63;4.80;;;10.80;99.90;;;;;;10356172;28;20029;-61
2022/11/18 13:53:24;;;;;;;7.70;4.32;;;10.80;99.90;;;;;;10371107;28;20460;-62
2022/11/18 13:58:30;;;;;;;;;;;10.80;99.90;;;;;;10364323;28;20879;-60
2022/11/18 14:03:47;;;;;;;7.70;4.32;;;10.80;99.90;;;;;;10372500;28;20052;-61
2022/11/18 14:08:49;;;;;;;7.38;4.07;;;10.80;99.90;;;;;;10379347;28;20583;-60
2022/11/18 14:13:53;;;;;;;9.48;4.82;;;10.80;99.90;;;;;;10355698;28;20464;-61
2022/11/18 14:18:54;;;;;;;8.75;4.25;;;10.80;99.90;;;;;;10362896;28;20605;-61
2022/11/18 14:23:55;;;;;;;7.85;4.13;;;10.90;99.90;;;;;;10361576;28;20029;-62
2022/11/18 14:29:21;;;;;;;8.40;4.38;;;10.80;99.90;;;;;;10353748;28;20584;-59
2022/11/18 14:34:25;;;;;;;8.43;4.22;;;10.80;99.90;;;;;;10360066;28;20021;-59
2022/11/18 14:39:30;;;;;;;8.95;4.68;;;10.80;99.90;;;;;;10359186;28;20029;-61
2022/11/18 14:44:31;;;;;;;8.23;4.15;;;10.80;99.90;;;;;;10357802;28;20060;-60
2022/11/18 14:49:32;;;;;;;9.85;4.03;;;10.70;99.90;;;;;;10361816;28;20029;-60
2022/11/18 14:54:33;;;;;;;8.43;4.30;;;10.80;99.90;;;;;;10359487;28;20309;-60
2022/11/18 14:59:34;;;;;;;7.95;4.47;;;10.70;99.90;;;;;;10347368;28;20037;-61
2022/11/18 15:04:35;;;;;;;7.97;4.05;;;10.70;99.90;;;;;;10367374;28;20148;-60
2022/11/18 15:09:37;;;;;;;10.40;4.97;;;10.70;99.90;;;;;;10352800;28;20064;-59
2022/11/18 15:14:38;;;;;;;7.47;4.32;;;10.70;99.90;;;;;;10343253;28;20033;-60
2022/11/18 15:19:40;;;;;;;7.78;4.20;;;10.60;99.90;;;;;;10357612;28;20072;-61
2022/11/18 15:24:41;;;;;;;8.65;4.32;;;10.70;99.90;;;;;;10350445;28;20355;-59
2022/11/18 15:29:41;;;;;;;9.77;4.93;;;10.60;99.90;;;;;;10357515;28;20504;-61
2022/11/18 15:34:42;;;;;;;8.70;4.30;;;10.60;99.90;;;;;;10333194;28;20033;-59
2022/11/18 15:39:43;;;;;;;8.95;4.38;;;10.50;99.90;;;;;;10340609;28;20916;-60
2022/11/18 15:44:44;;;;;;;10.18;5.03;;;10.50;99.90;;;;;;10319751;28;20170;-60
2022/11/18 15:49:45;;;;;;;9.75;4.35;;;10.50;99.90;;;;;;10329549;28;20024;-61
2022/11/18 15:54:46;;;;;;;7.63;4.13;;;10.50;99.90;;;;;;10318682;28;20886;-61
2022/11/18 15:59:47;;;;;;;8.48;4.45;;;10.50;99.90;;;;;;10317397;28;20589;-58
2022/11/18 16:04:48;;;;;;;11.40;4.88;;;10.40;99.90;;;;;;10318804;28;20029;-60
2022/11/18 16:20:28;;;;;;;9.18;4.43;;;10.40;99.90;;;;;;10438403;28;20144;-59
2022/11/18 16:25:29;;;;;;;7.57;4.05;;;10.40;99.90;;;;;;10437645;28;20044;-61
2022/11/18 16:35:49;;;;;;;8.65;4.18;;;10.30;99.90;;;;;;10437323;28;20029;-62
2022/11/18 16:40:57;;;;;;;12.93;4.90;;;10.40;99.90;;;;;;10444696;28;20048;-62
2022/11/18 16:45:57;;;;;;;8.63;4.15;;;10.30;99.90;;;;;;10438078;28;20029;-61
2022/11/18 16:51:16;;;;;;;11.95;5.50;;;10.30;99.90;;;;;;10441518;28;20393;-61
2022/11/18 16:56:22;;;;;;;10.43;4.60;;;10.30;99.90;;;;;;10438223;28;20013;-64
2022/11/18 17:01:23;;;;;;;8.52;4.28;;;10.30;99.90;;;;;;10441570;28;20037;-60
2022/11/18 17:06:24;;;;;;;9.35;4.70;;;10.20;99.90;;;;;;10435556;28;20017;-60
2022/11/18 17:11:25;;;;;;;9.23;4.30;;;10.20;99.90;;;;;;10441172;28;20051;-60
2022/11/18 17:16:25;;;;;;;6.75;3.60;;;10.20;99.90;;;;;;10440828;28;20024;-61
2022/11/18 17:21:29;;;;;;;9.27;4.60;;;10.20;99.90;;;;;;10441576;28;20045;-61
2022/11/18 17:26:29;;;;;;;8.70;3.90;;;10.20;99.90;;;;;;10439462;28;20385;-60
2022/11/18 17:31:30;;;;;;;8.13;4.05;;;10.10;99.90;;;;;;10420059;28;20033;-60
2022/11/18 17:36:31;;;;;;;9.25;4.68;;;10.10;99.90;;;;;;10416183;28;20473;-60
2022/11/18 17:46:52;;;;;;;7.28;4.05;;;10.10;99.90;;;;;;10413245;28;20025;-60
2022/11/18 17:51:52;;;;;;;8.02;4.38;;;10.00;99.90;;;;;;10411657;28;20037;-64
2022/11/18 17:56:53;;;;;;;7.47;3.70;;;10.00;99.90;;;;;;10414294;28;20330;-60
2022/11/18 18:01:54;;;;;;;8.57;4.22;;;10.00;99.90;;;;;;10426807;28;20056;-60
2022/11/18 18:06:55;;;;;;;7.55;3.97;;;10.00;99.90;;;;;;10448193;28;20017;-61
2022/11/18 18:11:56;;;;;;;6.30;3.80;;;10.00;99.90;;;;;;10448632;28;20059;-60
2022/11/18 18:16:56;;;;;;;7.65;3.88;;;9.90;99.90;;;;;;10442985;28;20389;-62
2022/11/18 18:21:57;;;;;;;7.63;3.97;;;9.90;99.90;;;;;;10447654;28;20053;-64
2022/11/18 18:26:59;;;;;;;6.60;3.30;;;9.90;99.90;;;;;;10446987;28;20033;-60
2022/11/18 18:32:01;;;;;;;7.68;3.85;;;9.50;99.90;;;;;;10436963;28;20115;-65
2022/11/18 18:37:02;;;;;;;5.22;3.05;;;9.90;99.90;;;;;;10443609;28;20048;-63
2022/11/18 18:42:03;;;;;;;6.30;3.63;;;9.80;99.90;;;;;;10445890;28;20064;-60
2022/11/18 18:47:04;;;;;;;5.90;3.05;;;9.80;99.90;;;;;;10444534;28;20495;-60
2022/11/18 18:52:05;;;;;;;7.90;3.78;;;9.80;99.90;;;;;;10447145;28;20492;-66
2022/11/18 18:57:05;;;;;;;5.30;3.33;;;9.80;99.90;;;;;;10446552;28;20029;-60
2022/11/18 19:02:09;;;;;;;8.18;3.97;;;9.80;99.90;;;;;;10439501;28;20489;-60
2022/11/18 19:07:09;;;;;;;6.25;3.80;;;9.70;99.90;;;;;;10442863;28;20025;-61
2022/11/18 19:17:29;;;;;;;8.30;4.55;;;9.70;99.90;;;;;;10432209;28;20025;-61
2022/11/18 19:22:32;;;;;;;6.78;3.97;;;9.70;99.90;;;;;;10445125;28;20037;-61
2022/11/18 19:27:37;;;;;;;7.97;4.30;;;9.70;99.90;;;;;;10444990;28;20029;-61
2022/11/18 19:32:40;;;;;;;8.68;4.28;;;9.60;99.90;;;;;;10436775;28;20331;-60
2022/11/18 19:37:41;;;;;;;9.07;4.38;;;9.60;99.90;;;;;;10431108;28;20029;-65
2022/11/18 19:42:41;;;;;;;6.40;4.18;;;9.60;99.90;;;;;;10439335;28;20045;-60
2022/11/18 19:47:42;;;;;;;7.78;4.63;;;9.60;99.90;;;;;;10445384;28;20024;-60
2022/11/18 19:52:46;;;;;;;8.68;4.63;;;9.50;99.90;;;;;;10436206;28;20079;-66
2022/11/18 19:57:47;;;;;;;10.10;4.78;;;9.60;99.90;;;;;;10428360;28;20032;-62
2022/11/18 20:02:48;;;;;;;8.73;4.90;;;9.50;99.90;;;;;;10439665;28;20032;-64
2022/11/18 20:07:54;;;;;;;10.07;4.60;;;9.50;99.90;;;;;;10429552;28;20037;-63
2022/11/18 20:12:56;;;;;;;8.45;4.85;;;9.50;99.90;;;;;;10454600;28;20548;-66
2022/11/18 20:17:57;;;;;;;10.38;5.13;;;9.50;99.90;;;;;;10432629;28;20777;-60
2022/11/18 20:22:57;;;;;;;10.63;4.95;;;9.50;99.90;;;;;;10441396;28;20055;-60
2022/11/18 20:27:58;;;;;;;9.32;4.75;;;9.50;99.90;;;;;;10443108;28;20374;-60
2022/11/18 20:32:59;;;;;;;9.38;5.22;;;9.50;99.90;;;;;;10443445;28;20030;-61
2022/11/18 20:38:00;;;;;;;9.15;4.72;;;9.40;99.90;;;;;;10442742;28;20024;-61
2022/11/18 20:43:13;;;;;;;9.55;5.78;;;9.40;99.90;;;;;;10447986;28;20167;-61
2022/11/18 20:48:14;;;;;;;10.80;5.90;;;9.40;99.90;;;;;;10442508;28;20063;-61
2022/11/18 20:53:15;;;;;;;10.60;5.85;;;9.30;99.90;;;;;;10437436;28;20544;-62
2022/11/18 20:58:17;;;;;;;11.05;5.85;;;9.30;99.90;;;;;;10422267;28;20013;-60
2022/11/18 21:03:20;;;;;;;11.35;5.80;;;9.30;99.90;;;;;;10419482;28;20056;-61
2022/11/18 21:08:20;;;;;;;10.70;5.68;;;9.30;99.90;;;;;;10422134;28;20021;-61
2022/11/18 21:18:40;;;;;;;11.40;6.18;;;9.30;99.90;;;;;;10440350;28;20513;-61
2022/11/18 21:23:41;;;;;;;11.18;5.72;;;9.30;99.90;;;;;;10441779;28;20040;-63
2022/11/18 21:28:57;;;;;;;12.10;6.28;;;9.30;99.90;;;;;;10433802;28;20087;-62
2022/11/18 21:33:58;;;;;;;13.35;6.70;;;9.20;99.90;;;;;;10434966;28;20047;-61
2022/11/18 21:39:00;;;;;;;11.15;6.45;;;9.20;99.90;;;;;;10456643;28;20047;-60
2022/11/18 21:44:01;;;;;;;11.75;6.43;;;9.20;99.90;;;;;;10439162;28;20397;-60
2022/11/18 21:49:02;;;;;;;11.55;6.53;;;9.20;99.90;;;;;;10446418;28;20075;-66
2022/11/18 21:54:03;;;;;;;11.98;6.82;;;9.20;99.90;;;;;;10440730;28;20053;-59
2022/11/18 21:59:06;;;;;;;12.10;6.93;;;9.20;99.90;;;;;;10427892;28;20030;-61
2022/11/18 22:04:51;;;;;;;12.85;7.32;;;9.10;99.90;;;;;;10440979;28;20485;-60
2022/11/18 22:09:29;;;;;;;13.48;6.63;;;9.20;99.90;;;;;;10442850;28;20028;-62
2022/11/18 22:14:29;;;;;;;14.45;7.20;;;9.20;99.90;;;;;;10445663;28;20496;-62
2022/11/18 22:19:30;;;;;;;12.95;6.80;;;9.10;99.90;;;;;;10434150;28;20041;-61
2022/11/18 22:24:32;;;;;;;13.00;7.22;;;9.10;99.90;;;;;;10445465;28;20049;-60
2022/11/18 22:29:33;;;;;;;12.20;6.70;;;9.10;99.90;;;;;;10446053;28;20025;-60
2022/11/18 22:34:34;;;;;;;11.40;6.65;;;9.00;99.90;;;;;;10431809;28;20029;-64
2022/11/18 22:39:34;;;;;;;12.80;7.40;;;9.10;99.90;;;;;;10441296;28;20477;-62
2022/11/18 22:44:35;;;;;;;14.68;7.95;;;9.00;99.90;;;;;;10447134;28;20523;-60
2022/11/18 22:49:36;;;;;;;15.45;8.02;;;9.00;99.90;;;;;;10443851;28;20117;-60
2022/11/18 22:54:36;;;;;;;12.88;7.03;;;9.00;99.90;;;;;;10443322;28;20552;-63
2022/11/18 22:59:37;;;;;;;14.18;8.02;;;9.00;99.90;;;;;;10441280;28;20052;-60
2022/11/18 23:04:38;;;;;;;14.70;7.65;;;9.00;99.90;;;;;;10441901;28;20032;-62
2022/11/18 23:09:38;;;;;;;14.75;7.63;;;9.00;99.90;;;;;;10455766;28;20119;-65
2022/11/18 23:14:39;;;;;;;14.63;7.80;;;8.90;99.80;;;;;;10453460;28;20118;-60
2022/11/18 23:19:42;;;;;;;13.63;7.65;;;8.90;99.80;;;;;;10445524;28;20061;-61
2022/11/18 23:24:43;;;;;;;13.32;7.15;;;8.90;99.80;;;;;;10445759;28;20516;-64
2022/11/18 23:29:44;;;;;;;11.55;6.45;;;8.90;99.80;;;;;;10431469;28;20044;-61
2022/11/18 23:34:44;;;;;;;14.75;7.32;;;8.90;99.70;;;;;;10445434;28;20405;-61
2022/11/18 23:39:45;;;;;;;14.07;7.78;;;8.90;99.70;;;;;;10452058;28;20048;-60
2022/11/18 23:44:46;;;;;;;15.50;7.72;;;8.90;99.70;;;;;;10430962;28;20112;-60
2022/11/18 23:49:46;;;;;;;14.20;7.03;;;8.90;99.70;;;;;;10438593;28;20025;-60
2022/11/18 23:54:48;;;;;;;12.98;6.97;;;8.80;99.70;;;;;;10436975;28;20056;-61
2022/11/18 23:59:49;;;;;;;13.30;7.18;;;8.80;99.70;;;;;;10444365;28;20068;-60
